Winters, TX (79567)

10:44 PM CDT on September 21, 2014 (GMT -0500)
The Peterson Home | Change Station
CLOSE
Current Station
Personal Weather Station
Location: Ovalo, TX
Elevation: 1928 ft
Nearby Weather Stations

Elev 1928 ft 32.17 °N, 99.77 °W | Updated 0 second ago

Partly Cloudy
Partly Cloudy
74.0 °F
Feels Like 75 °F
N
0.0
Wind Variable Wind from South
Gusts 0.0 mph

Today
High -- | Low -- °F
--% Chance of Precip.
Yesterday
High -- | Low -- °F
Precip. -- in
7:27 AM 7:37 PM
Waning Crescent, 4% visible
Pressure 30.01 in
Visibility 10.0 miles
Clouds Clear
Heat Index 75 °F
Dew Point 66 °F
Humidity 76%
Rainfall 0.00 in
Snow Depth Not available.
UV 0 out of 12
Pollen 10.20 out of 12
Air Quality Not available.
Flu Activity Not available.
METAR KDYS 220258Z AUTO 27001KT 10SM CLR 24/17 A3014 RMK AO2 SLP163 T02380166 52022 $

More Conditions Fewer Conditions

Pressure 30.01 in
Visibility 10.0 miles
Clouds Clear
Heat Index 75 °F
Dew Point 66 °F
Humidity 76%
Rainfall 0.00 in
Snow Depth Not available.
UV 0 out of 12
Pollen 10.20 out of 12
Air Quality Not available.
Flu Activity Not available.
METAR KDYS 220258Z AUTO 27001KT 10SM CLR 24/17 A3014 RMK AO2 SLP163 T02380166 52022 $

More Conditions Fewer Conditions

10-Day Weather Forecast

Almanac

Astronomy

Sep. 21, 2014 Rise Set
Actual Time 7:27 AM CDT 7:37 PM CDT
Civil Twilight 7:02 AM CDT 8:01 PM CDT
Nautical Twilight 6:34 AM CDT 8:30 PM CDT
Astronomical Twilight 6:05 AM CDT 8:59 PM CDT
Moon 5:09 AM CDT (9/21) 6:09 PM CDT (9/21)
Length of Visible Light 12h 59m
Length of Day
12h 10m
Tomorrow will be 1m 57s shorter.
Waning Crescent, 4% of the Moon is Illuminated
Today
Waning Crescent
Sep 24
New
Oct 1
First Quarter
Oct 8
Full
Oct 15
Last Quarter

Today's Extremes

State Highs State Lows

Community

WunderPhotos

Upload Photos

1,755,382 photos uploaded!

WunderBlogs® & News

Nearby

Snow Depth

Station Depth Elevation
No new snow has been reported.

Earthquake Activity

City Distance Mag. Time & Date
No recent earthquake activity has been reported nearby.
Minimum magnitude displayed is 2.5.

Coastal Water Temperatures

Place Temperature
No Stations Reporting

Nearby Weather Stations